Time;durP1;ratioP1;P1;durP2;ratioP2;P2;SDS_P1;SDS_P2;PMS_P1;PMS_P2;Temp;Humidity;BMP_temperature;BMP_pressure;BME280_temperature;BME280_humidity;BME280_pressure;Samples;Min_cycle;Max_cycle;Signal;HPM_P1;HPM_P2
2021/01/07 00:03:03;;;;;;;29.00;17.73;;;;;;;0.94;100.00;100795.13;10259748;28;20488;-73
2021/01/07 00:08:04;;;;;;;25.42;15.45;;;;;;;0.91;100.00;100780.47;10273878;28;20048;-74
2021/01/07 00:13:05;;;;;;;28.63;17.33;;;;;;;0.86;100.00;100776.13;10259725;29;20090;-73
2021/01/07 00:18:06;;;;;;;21.75;14.80;;;;;;;0.80;100.00;100766.63;10258738;29;20039;-74
2021/01/07 00:23:07;;;;;;;28.08;17.58;;;;;;;0.91;100.00;100787.38;10259204;29;20051;-74
2021/01/07 00:28:08;;;;;;;28.70;19.00;;;;;;;0.92;100.00;100783.91;10261175;28;20047;-74
2021/01/07 00:33:15;;;;;;;29.55;20.35;;;;;;;0.91;100.00;100777.88;10257816;28;20059;-74
2021/01/07 00:38:16;;;;;;;31.63;19.05;;;;;;;0.96;100.00;100790.81;10258587;29;20043;-73
2021/01/07 00:43:17;;;;;;;26.17;17.40;;;;;;;0.91;100.00;100782.19;10240715;29;20047;-73
2021/01/07 00:48:19;;;;;;;26.20;18.00;;;;;;;1.02;100.00;100791.66;10258816;28;20047;-74
2021/01/07 00:53:20;;;;;;;25.90;16.65;;;;;;;0.96;100.00;100776.13;10258658;29;20448;-74
2021/01/07 00:58:22;;;;;;;27.45;15.93;;;;;;;0.98;100.00;100770.94;10255800;28;20439;-74
2021/01/07 01:03:23;;;;;;;25.70;17.85;;;;;;;0.97;100.00;100776.97;10240993;28;20050;-73
2021/01/07 01:08:24;;;;;;;28.80;17.38;;;;;;;0.99;100.00;100770.06;10266112;28;20047;-73
2021/01/07 01:13:25;;;;;;;21.35;15.75;;;;;;;0.91;100.00;100754.53;10258082;29;20836;-73
2021/01/07 01:18:26;;;;;;;27.67;17.90;;;;;;;0.95;100.00;100769.19;10241196;29;20043;-73
2021/01/07 01:23:27;;;;;;;26.08;16.90;;;;;;;0.98;100.00;100766.59;10256733;29;20059;-74
2021/01/07 01:28:28;;;;;;;23.58;15.85;;;;;;;0.98;100.00;100776.13;10274582;28;20035;-74
2021/01/07 01:33:30;;;;;;;26.48;15.90;;;;;;;0.95;100.00;100769.19;10261471;28;20054;-73
2021/01/07 01:38:31;;;;;;;23.83;18.20;;;;;;;0.89;100.00;100761.44;10256852;29;20054;-73
2021/01/07 01:43:36;;;;;;;25.63;17.30;;;;;;;0.89;100.00;100766.63;10257391;29;20050;-73
2021/01/07 01:48:40;;;;;;;25.08;14.27;;;;;;;0.89;100.00;100764.03;10256386;28;20052;-74
2021/01/07 01:53:41;;;;;;;23.93;16.47;;;;;;;0.87;100.00;100759.72;10256834;29;20043;-74
2021/01/07 01:58:42;;;;;;;22.30;15.95;;;;;;;0.86;100.00;100755.38;10257551;29;20047;-73
2021/01/07 02:03:44;;;;;;;25.55;16.38;;;;;;;0.80;100.00;100752.81;10259662;29;20070;-73
2021/01/07 02:08:47;;;;;;;22.90;14.95;;;;;;;0.81;100.00;100762.31;10265537;28;20057;-73
2021/01/07 02:13:49;;;;;;;27.88;16.10;;;;;;;0.80;100.00;100758.88;10295607;28;20475;-73
2021/01/07 02:18:54;;;;;;;22.40;16.50;;;;;;;0.78;100.00;100770.97;10281363;28;20480;-73
2021/01/07 02:23:55;;;;;;;;;;;;;;;0.79;100.00;100764.91;10248344;29;20486;-73
2021/01/07 02:28:56;;;;;;;24.70;16.73;;;;;;;0.76;100.00;100772.69;10248548;28;19926;-73
2021/01/07 02:33:58;;;;;;;25.85;16.98;;;;;;;0.80;100.00;100776.16;10268821;28;20055;-73
2021/01/07 02:38:59;;;;;;;25.80;15.90;;;;;;;0.80;100.00;100765.78;10253965;29;20079;-73
2021/01/07 02:44:00;;;;;;;25.98;17.95;;;;;;;0.74;100.00;100764.06;10253492;29;20050;-73
2021/01/07 02:49:01;;;;;;;25.20;17.55;;;;;;;0.78;100.00;100776.16;10238111;28;20051;-73
2021/01/07 02:54:02;;;;;;;28.25;17.83;;;;;;;0.79;100.00;100772.69;10278984;28;20046;-73
2021/01/07 02:59:04;;;;;;;28.45;17.48;;;;;;;0.79;100.00;100764.91;10254014;29;20058;-74
2021/01/07 03:04:05;;;;;;;29.17;19.35;;;;;;;0.84;100.00;100770.94;10238199;28;20055;-74
2021/01/07 03:09:06;;;;;;;28.90;18.90;;;;;;;0.76;100.00;100754.53;10263817;28;20047;-74
2021/01/07 03:14:07;;;;;;;30.48;19.58;;;;;;;0.80;100.00;100748.50;10293357;28;20390;-73
2021/01/07 03:19:08;;;;;;;28.50;18.73;;;;;;;0.71;100.00;100736.41;10251694;29;20082;-73
2021/01/07 03:24:11;;;;;;;29.73;19.17;;;;;;;0.78;100.00;100745.03;10253450;29;20078;-73
2021/01/07 03:29:12;;;;;;;31.20;19.05;;;;;;;0.83;100.00;100743.31;10256954;28;20047;-74
2021/01/07 03:34:13;;;;;;;27.48;18.60;;;;;;;0.80;100.00;100732.94;10261543;28;20070;-73
2021/01/07 03:39:15;;;;;;;30.58;20.10;;;;;;;0.85;100.00;100728.59;10260654;28;20043;-74
2021/01/07 03:44:16;;;;;;;30.50;19.98;;;;;;;0.83;100.00;100730.34;10261379;29;20467;-73
2021/01/07 03:49:17;;;;;;;27.38;18.52;;;;;;;0.84;100.00;100729.44;10261136;29;20429;-73
2021/01/07 03:54:18;;;;;;;27.45;18.67;;;;;;;0.88;100.00;100738.09;10255449;29;20047;-73
2021/01/07 03:59:19;;;;;;;29.35;20.38;;;;;;;0.87;100.00;100728.59;10290364;28;20054;-73
2021/01/07 04:04:21;;;;;;;32.38;23.35;;;;;;;0.89;100.00;100727.72;10261939;28;20050;-73
2021/01/07 04:09:22;;;;;;;32.75;20.90;;;;;;;1.00;100.00;100738.06;10242270;29;20047;-73
2021/01/07 04:14:23;;;;;;;30.95;19.42;;;;;;;1.00;100.00;100725.97;10260054;29;20098;-73
2021/01/07 04:19:27;;;;;;;30.23;18.43;;;;;;;1.03;100.00;100728.53;10259333;28;20059;-73
2021/01/07 04:24:28;;;;;;;32.05;20.30;;;;;;;1.08;100.00;100731.13;10270018;28;20054;-73
2021/01/07 04:29:30;;;;;;;31.92;20.08;;;;;;;1.12;100.00;100722.44;10272094;28;20099;-73
2021/01/07 04:34:31;;;;;;;33.17;19.38;;;;;;;1.16;100.00;100725.91;10270971;28;20055;-73
2021/01/07 04:39:32;;;;;;;32.35;20.92;;;;;;;1.14;100.00;100718.13;10242449;28;20062;-73
2021/01/07 04:44:35;;;;;;;36.13;22.92;;;;;;;1.17;100.00;100710.34;10241976;29;20047;-73
2021/01/07 04:49:36;;;;;;;33.63;21.63;;;;;;;1.28;100.00;100715.44;10258996;29;20416;-73
2021/01/07 04:54:37;;;;;;;33.78;22.20;;;;;;;1.22;100.00;100705.97;10241220;29;20075;-73
2021/01/07 04:59:38;;;;;;;39.40;23.67;;;;;;;1.24;100.00;100708.56;10290883;28;20422;-73
2021/01/07 05:04:50;;;;;;;39.17;25.02;;;;;;;1.17;100.00;100692.19;10289944;28;20070;-73
2021/01/07 05:10:04;;;;;;;33.22;21.67;;;;;;;1.22;100.00;100693.00;10243955;29;20043;-74
2021/01/07 05:15:08;;;;;;;38.00;24.33;;;;;;;1.24;100.00;100695.59;10257420;29;20426;-73
2021/01/07 05:20:11;;;;;;;35.17;23.33;;;;;;;1.28;100.00;100702.47;10257552;29;20083;-73
2021/01/07 05:25:14;;;;;;;38.05;22.65;;;;;;;1.25;100.00;100693.00;10257367;29;20046;-73
2021/01/07 05:30:16;;;;;;;33.63;19.77;;;;;;;1.20;100.00;100678.31;10283498;28;20046;-73
2021/01/07 05:35:19;;;;;;;37.00;23.25;;;;;;;1.23;100.00;100691.28;10287803;28;20058;-73
2021/01/07 05:40:22;;;;;;;32.17;20.35;;;;;;;1.17;100.00;100680.94;10238288;29;20495;-74
2021/01/07 05:45:23;;;;;;;41.88;23.00;;;;;;;1.12;100.00;100675.75;10256178;29;20054;-73
2021/01/07 05:50:25;;;;;;;42.72;25.10;;;;;;;1.11;100.00;100677.47;10220143;29;20062;-74
2021/01/07 05:55:27;;;;;;;40.33;25.98;;;;;;;1.07;100.00;100678.38;10232889;29;20612;-73
2021/01/07 06:00:34;;;;;;;44.83;27.13;;;;;;;1.08;100.00;100682.69;10294916;28;20403;-73
2021/01/07 06:05:38;;;;;;;44.08;26.92;;;;;;;1.13;100.00;100680.06;10285321;28;20111;-73
2021/01/07 06:10:39;;;;;;;46.57;27.77;;;;;;;1.17;100.00;100680.94;10238371;29;20051;-73
2021/01/07 06:15:42;;;;;;;46.30;27.13;;;;;;;1.11;100.00;100684.41;10255329;29;20377;-73
2021/01/07 06:20:45;;;;;;;40.40;25.08;;;;;;;1.12;100.00;100678.34;10255888;29;20051;-74
2021/01/07 06:25:46;;;;;;;39.88;23.63;;;;;;;1.15;100.00;100691.31;10255127;29;20051;-73
2021/01/07 06:30:47;;;;;;;46.50;25.52;;;;;;;1.15;100.00;100683.53;10285915;28;20043;-73
2021/01/07 06:35:48;;;;;;;37.35;23.33;;;;;;;1.12;100.00;100679.22;10284894;28;20480;-73
2021/01/07 06:40:49;;;;;;;32.95;21.70;;;;;;;1.14;100.00;100679.22;10220369;29;20051;-73
2021/01/07 06:45:53;;;;;;;35.45;22.45;;;;;;;1.08;100.00;100666.28;10230206;28;20047;-73
2021/01/07 06:50:55;;;;;;;34.25;21.42;;;;;;;1.17;100.00;100680.94;10260576;28;20046;-73
2021/01/07 06:56:17;;;;;;;38.67;23.85;;;;;;;1.14;100.00;100674.88;10231074;28;20465;-73
2021/01/07 07:01:18;;;;;;;37.08;21.80;;;;;;;1.11;100.00;100667.09;10273956;28;20035;-73
2021/01/07 07:06:25;;;;;;;30.90;20.90;;;;;;;1.11;100.00;100669.69;10253802;28;20463;-73
2021/01/07 07:11:34;;;;;;;32.58;19.42;;;;;;;1.00;100.00;100660.25;10252337;28;20054;-74
2021/01/07 07:16:36;;;;;;;30.77;19.70;;;;;;;1.01;100.00;100668.00;10256074;29;20047;-73
2021/01/07 07:21:52;;;;;;;30.25;20.50;;;;;;;0.98;100.00;100657.66;10255505;29;20458;-73
2021/01/07 07:27:00;;;;;;;30.55;19.50;;;;;;;0.93;100.00;100663.72;10250940;28;20566;-73
2021/01/07 07:32:25;;;;;;;30.23;20.23;;;;;;;0.96;100.00;100663.72;10256442;28;20047;-72
2021/01/07 07:37:27;;;;;;;30.80;19.73;;;;;;;0.97;100.00;100668.03;10251567;29;20047;-70
2021/01/07 07:42:29;;;;;;;28.15;18.70;;;;;;;1.14;100.00;100687.00;10250878;29;20603;-71
2021/01/07 07:47:31;;;;;;;31.40;19.63;;;;;;;1.18;100.00;100685.22;10257605;28;20443;-71
2021/01/07 07:52:32;;;;;;;29.65;19.70;;;;;;;1.10;100.00;100680.06;10250825;29;20051;-71
2021/01/07 07:57:47;;;;;;;30.65;19.73;;;;;;;0.91;100.00;100668.94;10250046;29;20047;-72
2021/01/07 08:02:50;;;;;;;33.33;19.98;;;;;;;0.89;100.00;100690.56;10251052;28;20054;-73
2021/01/07 08:07:53;;;;;;;37.17;21.88;;;;;;;0.86;100.00;100701.78;10251351;29;20054;-72
2021/01/07 08:12:54;;;;;;;38.80;23.50;;;;;;;0.89;100.00;100714.75;10251375;28;20039;-72
2021/01/07 08:18:12;;;;;;;38.17;23.33;;;;;;;0.90;100.00;100715.63;10259245;29;20054;-71
2021/01/07 08:23:16;;;;;;;36.35;21.80;;;;;;;0.89;100.00;100717.34;10259464;29;20047;-71
2021/01/07 08:28:35;;;;;;;35.22;23.60;;;;;;;0.99;100.00;100726.84;10257517;28;20047;-71
2021/01/07 08:33:37;;;;;;;34.45;22.60;;;;;;;1.06;100.00;100731.13;10256853;29;20389;-72
2021/01/07 08:38:39;;;;;;;33.13;21.08;;;;;;;1.01;100.00;100721.63;10258141;29;20396;-71
2021/01/07 08:43:42;;;;;;;29.75;19.08;;;;;;;1.08;100.00;100729.41;10256473;28;20139;-71
2021/01/07 08:48:45;;;;;;;34.17;20.88;;;;;;;1.33;100.00;100739.66;10279755;28;20057;-71
2021/01/07 08:53:53;;;;;;;31.58;19.10;;;;;;;1.37;100.00;100723.19;10292728;28;20054;-71
2021/01/07 08:59:21;;;;;;;30.23;19.08;;;;;;;1.53;100.00;100730.03;10239905;29;20054;-71
2021/01/07 09:04:30;;;;;;;28.20;18.90;;;;;;;1.46;100.00;100716.22;10239162;29;20043;-73
2021/01/07 09:09:48;;;;;;;27.20;18.35;;;;;;;1.22;100.00;100703.38;10258063;29;20043;-71
2021/01/07 09:14:53;;;;;;;29.15;19.08;;;;;;;1.16;100.00;100706.00;10257251;28;20050;-72
2021/01/07 09:20:06;;;;;;;26.77;17.17;;;;;;;1.05;100.00;100707.78;10258084;29;20047;-73
2021/01/07 09:25:17;;;;;;;22.42;14.98;;;;;;;1.03;100.00;100710.38;10255211;28;20420;-73
2021/01/07 09:30:19;;;;;;;23.80;16.65;;;;;;;1.21;100.00;100725.00;10268274;28;20448;-73
2021/01/07 09:35:20;;;;;;;23.88;15.73;;;;;;;1.36;100.00;100718.88;10257679;28;20070;-73
2021/01/07 09:40:33;;;;;;;23.95;16.83;;;;;;;1.39;100.00;100721.47;10255742;29;20126;-73
2021/01/07 09:45:34;;;;;;;24.15;16.40;;;;;;;1.38;100.00;100711.94;10256202;29;20062;-72
2021/01/07 09:50:35;;;;;;;24.65;16.67;;;;;;;1.33;100.00;100711.97;10283780;28;20055;-73
2021/01/07 09:55:36;;;;;;;27.10;17.17;;;;;;;1.22;100.00;100708.56;10255348;28;20048;-72
2021/01/07 10:00:37;;;;;;;23.42;16.20;;;;;;;1.40;100.00;100725.78;10254576;29;20353;-72
2021/01/07 10:05:38;;;;;;;25.42;16.40;;;;;;;1.54;100.00;100731.75;10253601;29;20044;-73
2021/01/07 10:10:39;;;;;;;23.95;16.25;;;;;;;1.52;100.00;100718.78;10253954;28;20043;-73
2021/01/07 10:15:40;;;;;;;24.70;16.90;;;;;;;1.59;100.00;100716.19;10254122;29;20046;-72
2021/01/07 10:20:41;;;;;;;39.35;28.88;;;;;;;1.89;100.00;100721.16;10254061;29;20043;-73
2021/01/07 10:25:46;;;;;;;20.40;15.60;;;;;;;1.97;100.00;100723.69;10254113;29;20412;-73
2021/01/07 10:30:47;;;;;;;18.93;14.00;;;;;;;1.92;100.00;100715.94;10255195;28;20392;-72
2021/01/07 10:35:49;;;;;;;20.00;14.65;;;;;;;1.89;100.00;100697.78;10248201;28;20118;-73
2021/01/07 10:40:52;;;;;;;21.40;14.68;;;;;;;1.82;100.00;100699.56;10248732;28;20514;-73
2021/01/07 10:45:53;;;;;;;20.75;13.95;;;;;;;1.79;100.00;100680.53;10234029;28;20485;-73
2021/01/07 10:51:01;;;;;;;19.92;14.00;;;;;;;1.94;100.00;100700.31;10256034;28;20054;-73
2021/01/07 10:56:04;;;;;;;17.85;12.70;;;;;;;1.90;100.00;100681.31;10252928;29;20488;-73
2021/01/07 11:01:42;;;;;;;17.80;13.20;;;;;;;1.96;100.00;100676.06;10257001;28;20058;-74
2021/01/07 11:07:06;;;;;;;16.75;12.13;;;;;;;2.00;100.00;100672.59;10250930;29;20054;-74
2021/01/07 11:12:21;;;;;;;20.45;14.70;;;;;;;1.92;100.00;100658.78;10253232;29;20396;-73
2021/01/07 11:17:25;;;;;;;19.27;13.70;;;;;;;1.93;100.00;100652.69;10253083;29;20476;-74
2021/01/07 11:22:32;;;;;;;21.75;15.93;;;;;;;1.86;100.00;100645.84;10252144;29;20451;-74
2021/01/07 11:27:38;;;;;;;21.10;14.88;;;;;;;1.83;100.00;100638.09;10240020;28;20491;-75
2021/01/07 11:32:39;;;;;;;24.20;17.55;;;;;;;1.98;100.00;100637.09;10257005;28;20055;-75
2021/01/07 11:38:01;;;;;;;27.33;16.95;;;;;;;1.97;100.00;100630.16;10260931;28;20042;-75
2021/01/07 11:43:30;;;;;;;23.25;16.15;;;;;;;1.92;100.00;100625.84;10285400;28;20047;-75
2021/01/07 11:48:33;;;;;;;21.50;15.00;;;;;;;1.87;100.00;100604.28;10253483;28;20049;-75
2021/01/07 11:53:35;;;;;;;22.63;15.60;;;;;;;1.95;100.00;100608.53;10260177;29;20047;-75
2021/01/07 11:58:41;;;;;;;19.75;13.88;;;;;;;2.05;100.00;100607.56;10260453;29;20047;-75
2021/01/07 12:03:43;;;;;;;20.60;14.48;;;;;;;2.09;100.00;100593.69;10259246;29;20090;-75
2021/01/07 12:09:02;;;;;;;18.30;13.25;;;;;;;2.10;100.00;100595.38;10249673;28;20051;-75
2021/01/07 12:14:14;;;;;;;18.00;13.07;;;;;;;2.24;100.00;100593.53;10223787;29;20043;-75
2021/01/07 12:19:15;;;;;;;20.55;14.05;;;;;;;2.24;100.00;100580.53;10259706;29;20043;-75
2021/01/07 12:24:19;;;;;;;22.40;15.00;;;;;;;2.29;100.00;100569.19;10259669;29;20054;-75
2021/01/07 12:29:22;;;;;;;16.90;13.70;;;;;;;2.33;100.00;100582.19;10278995;28;20043;-75
2021/01/07 12:34:38;;;;;;;19.10;14.15;;;;;;;2.50;100.00;100578.50;10299846;28;20070;-75
2021/01/07 12:40:09;;;;;;;19.83;14.18;;;;;;;2.50;100.00;100567.25;10279714;28;20380;-75
2021/01/07 12:45:13;;;;;;;18.20;13.40;;;;;;;2.57;100.00;100571.47;10258146;28;20499;-73
2021/01/07 12:50:14;;;;;;;49.80;37.40;;;;;;;2.53;100.00;100546.38;10258488;29;20385;-73
2021/01/07 12:55:16;;;;;;;15.77;12.05;;;;;;;2.40;100.00;100553.50;10240194;29;20046;-73
2021/01/07 13:00:25;;;;;;;19.85;15.27;;;;;;;2.50;100.00;100549.03;10240131;28;20052;-74
2021/01/07 13:05:35;;;;;;;16.83;12.18;;;;;;;2.51;100.00;100551.59;10254337;29;20050;-73
2021/01/07 13:10:37;;;;;;;16.52;13.18;;;;;;;2.53;100.00;100552.44;10245774;28;20043;-73
2021/01/07 13:15:41;;;;;;;15.20;11.52;;;;;;;2.49;100.00;100542.97;10256237;29;20046;-73
2021/01/07 13:20:43;;;;;;;14.00;10.82;;;;;;;2.36;100.00;100531.00;10257557;29;20043;-74
2021/01/07 13:25:44;;;;;;;14.52;12.43;;;;;;;2.27;100.00;100536.28;10257679;29;20807;-73
2021/01/07 13:30:46;;;;;;;14.55;11.73;;;;;;;2.27;100.00;100537.16;10287977;28;20050;-73
2021/01/07 13:35:51;;;;;;;13.68;10.32;;;;;;;2.33;100.00;100537.97;10282567;28;20468;-73
2021/01/07 13:41:01;;;;;;;14.40;11.75;;;;;;;2.22;100.00;100527.69;10272254;28;20047;-74
2021/01/07 13:46:07;;;;;;;17.02;11.93;;;;;;;2.14;100.00;100535.59;10238653;29;20051;-74
2021/01/07 13:51:10;;;;;;;29.70;20.65;;;;;;;2.32;100.00;100533.66;10253833;28;20043;-74
2021/01/07 13:56:11;;;;;;;18.60;13.93;;;;;;;2.32;100.00;100538.84;10254045;29;20090;-73
2021/01/07 14:01:12;;;;;;;15.43;12.73;;;;;;;2.40;100.00;100531.81;10254681;29;20110;-72
2021/01/07 14:06:16;;;;;;;13.77;11.32;;;;;;;2.31;100.00;100527.59;10254033;29;20058;-75
2021/01/07 14:11:21;;;;;;;13.23;10.90;;;;;;;2.24;100.00;100544.16;10236210;28;20067;-73
2021/01/07 14:16:23;;;;;;;13.95;12.40;;;;;;;2.14;100.00;100524.34;10243756;28;20058;-72
2021/01/07 14:21:24;;;;;;;14.80;12.43;;;;;;;2.21;100.00;100539.84;10254015;29;20050;-72
2021/01/07 14:26:27;;;;;;;14.60;12.00;;;;;;;2.26;100.00;100534.56;10233970;29;20130;-72
2021/01/07 14:31:33;;;;;;;13.63;11.30;;;;;;;2.15;100.00;100520.88;10252526;28;20408;-73
2021/01/07 14:36:39;;;;;;;13.10;11.70;;;;;;;2.19;100.00;100523.41;10218536;28;594293;-74
2021/01/07 14:41:40;;;;;;;11.45;10.20;;;;;;;2.12;100.00;100526.94;10281616;28;20066;-73
2021/01/07 14:46:45;;;;;;;14.30;12.80;;;;;;;2.11;100.00;100532.16;10287805;28;20052;-74
2021/01/07 14:51:49;;;;;;;15.10;12.60;;;;;;;2.10;100.00;100536.47;10253274;29;20050;-74
2021/01/07 14:56:51;;;;;;;14.23;12.13;;;;;;;2.13;100.00;100544.25;10254383;29;20047;-74
2021/01/07 15:02:23;;;;;;;14.95;13.10;;;;;;;2.01;100.00;100543.53;10254594;29;20392;-74
2021/01/07 15:07:41;;;;;;;14.00;12.30;;;;;;;2.00;100.00;100545.28;10253214;28;20051;-74
2021/01/07 15:12:46;;;;;;;14.77;12.80;;;;;;;1.96;100.00;100546.16;10252332;28;20472;-73
2021/01/07 15:18:22;;;;;;;24.60;18.70;;;;;;;1.99;100.00;100560.88;10253745;29;20051;-73
2021/01/07 15:23:56;;;;;;;25.47;20.57;;;;;;;2.01;100.00;100565.16;10233543;29;20052;-73
2021/01/07 15:29:08;;;;;;;16.10;13.38;;;;;;;1.97;100.00;100560.03;10236159;28;20039;-74
2021/01/07 15:34:25;;;;;;;14.60;12.20;;;;;;;1.98;100.00;100579.94;10252642;28;20056;-75
2021/01/07 15:40:04;;;;;;;15.65;12.68;;;;;;;1.99;100.00;100581.66;10252554;29;20098;-75
2021/01/07 15:45:36;;;;;;;16.13;12.82;;;;;;;1.93;100.00;100582.56;10252726;29;20495;-75
2021/01/07 15:51:14;;;;;;;16.60;13.55;;;;;;;1.95;100.00;100578.22;10253381;28;20039;-73
2021/01/07 15:56:18;;;;;;;17.80;15.07;;;;;;;1.93;100.00;100592.94;10235564;29;20039;-74
2021/01/07 16:01:23;;;;;;;19.60;15.35;;;;;;;1.92;100.00;100594.69;10253211;29;20051;-73
2021/01/07 16:06:40;;;;;;;17.75;15.23;;;;;;;1.92;100.00;100598.19;10252537;28;20055;-73
2021/01/07 16:11:41;;;;;;;18.27;15.25;;;;;;;1.83;100.00;100587.00;10252909;29;20051;-74
2021/01/07 16:16:44;;;;;;;19.10;15.02;;;;;;;1.92;100.00;100601.66;10252390;29;20047;-75
2021/01/07 16:22:16;;;;;;;18.38;14.43;;;;;;;1.89;100.00;100593.88;10238415;28;20476;-76
2021/01/07 16:27:29;;;;;;;23.40;17.20;;;;;;;1.90;100.00;100590.41;10251294;28;20035;-73
2021/01/07 16:32:30;;;;;;;22.00;14.63;;;;;;;1.85;100.00;100586.97;10233503;29;20059;-74
2021/01/07 16:37:32;;;;;;;15.65;12.50;;;;;;;1.82;100.00;100585.28;10248214;28;20050;-74
2021/01/07 16:42:34;;;;;;;16.75;12.27;;;;;;;1.77;100.00;100581.84;10258554;29;20055;-74
2021/01/07 16:47:35;;;;;;;12.88;11.57;;;;;;;1.82;100.00;100582.69;10258326;29;20506;-73
2021/01/07 16:52:39;;;;;;;9.25;8.18;;;;;;;1.83;100.00;100581.81;10257072;28;20435;-74
2021/01/07 16:57:42;;;;;;;8.32;6.05;;;;;;;1.83;100.00;100587.00;10207422;29;20403;-74
2021/01/07 17:02:44;;;;;;;7.65;3.88;;;;;;;1.82;100.00;100589.63;10243989;29;20546;-73
2021/01/07 17:07:48;;;;;;;6.68;3.50;;;;;;;1.81;100.00;100583.56;10257094;28;20055;-74
2021/01/07 17:12:49;;;;;;;6.38;3.25;;;;;;;1.83;100.00;100591.34;10257622;29;20050;-73
2021/01/07 17:17:50;;;;;;;10.60;5.68;;;;;;;1.83;100.00;100574.03;10257775;29;20051;-73
2021/01/07 17:22:51;;;;;;;9.23;4.72;;;;;;;1.78;100.00;100555.00;10238634;29;20063;-73
2021/01/07 17:27:55;;;;;;;11.80;4.88;;;;;;;1.81;100.00;100554.97;10263130;28;20043;-73
2021/01/07 17:32:56;;;;;;;7.07;4.97;;;;;;;1.76;100.00;100543.75;10294247;28;20592;-73
2021/01/07 17:37:58;;;;;;;12.68;7.13;;;;;;;1.86;100.00;100557.53;10236491;29;20050;-73
2021/01/07 17:42:59;;;;;;;12.90;7.05;;;;;;;1.98;100.00;100560.00;10225217;29;20051;-73
2021/01/07 17:48:00;;;;;;;11.13;7.68;;;;;;;2.00;100.00;100553.06;10216311;29;20047;-73
2021/01/07 17:53:01;;;;;;;11.23;6.22;;;;;;;1.93;100.00;100528.00;10241345;29;20051;-73
2021/01/07 17:58:02;;;;;;;13.20;7.70;;;;;;;2.04;100.00;100533.09;10255191;29;20596;-73
2021/01/07 18:03:04;;;;;;;21.02;8.20;;;;;;;2.01;100.00;100514.97;10256435;29;20051;-73
2021/01/07 18:08:05;;;;;;;11.70;7.70;;;;;;;2.19;100.00;100531.19;10254672;28;20054;-73
2021/01/07 18:13:06;;;;;;;13.30;7.60;;;;;;;2.17;100.00;100519.13;10252728;28;20047;-73
2021/01/07 18:18:10;;;;;;;15.70;9.25;;;;;;;2.11;100.00;100530.41;10261957;28;20049;-73
2021/01/07 18:23:12;;;;;;;15.43;8.73;;;;;;;1.89;100.00;100511.63;10264635;28;20051;-73
2021/01/07 18:28:14;;;;;;;16.30;8.48;;;;;;;1.81;100.00;100518.63;10260399;28;20074;-73
2021/01/07 18:33:15;;;;;;;14.57;9.57;;;;;;;1.69;100.00;100503.16;10251988;28;20066;-73
2021/01/07 18:38:16;;;;;;;15.75;10.25;;;;;;;1.77;100.00;100514.31;10252708;29;20439;-73
2021/01/07 18:43:17;;;;;;;18.48;11.63;;;;;;;1.68;100.00;100505.75;10272701;28;20054;-74
2021/01/07 18:48:18;;;;;;;20.40;14.75;;;;;;;1.58;100.00;100494.63;10294038;28;20053;-73
2021/01/07 18:53:19;;;;;;;18.65;13.80;;;;;;;1.68;100.00;100511.81;10245482;29;20448;-73
2021/01/07 18:58:20;;;;;;;18.88;13.13;;;;;;;1.60;100.00;100516.22;10253342;28;20048;-74
2021/01/07 19:03:22;;;;;;;18.83;14.30;;;;;;;1.49;100.00;100497.31;10254187;29;20047;-73
2021/01/07 19:08:23;;;;;;;19.40;14.63;;;;;;;1.47;100.00;100509.44;10253318;29;20048;-73
2021/01/07 19:13:24;;;;;;;16.95;14.98;;;;;;;1.45;100.00;100508.56;10239967;28;20464;-73
2021/01/07 19:18:25;;;;;;;18.63;14.85;;;;;;;1.42;100.00;100506.84;10260026;28;20038;-74
2021/01/07 19:23:26;;;;;;;18.42;14.02;;;;;;;1.47;100.00;100523.28;10263809;28;20507;-73
2021/01/07 19:28:28;;;;;;;30.25;20.40;;;;;;;1.47;100.00;100531.06;10235960;28;20047;-73
2021/01/07 19:33:29;;;;;;;24.48;16.85;;;;;;;1.38;100.00;100528.53;10252576;29;20051;-74
2021/01/07 19:38:30;;;;;;;23.40;17.65;;;;;;;1.38;100.00;100531.13;10225655;28;20044;-73
2021/01/07 19:43:32;;;;;;;36.80;25.05;;;;;;;1.43;100.00;100539.72;10225321;28;20045;-72
2021/01/07 19:48:33;;;;;;;45.97;28.35;;;;;;;1.40;100.00;100533.72;10252187;29;20050;-73
2021/01/07 19:53:34;;;;;;;34.70;24.15;;;;;;;1.48;100.00;100552.69;10251380;28;20468;-73
2021/01/07 19:58:35;;;;;;;25.20;17.92;;;;;;;1.48;100.00;100565.66;10252436;29;20411;-72
2021/01/07 20:03:36;;;;;;;23.13;17.75;;;;;;;1.41;100.00;100564.88;10254843;29;20039;-73
2021/01/07 20:08:37;;;;;;;23.88;17.85;;;;;;;1.48;100.00;100570.84;10267296;28;20051;-73
2021/01/07 20:13:39;;;;;;;36.83;23.05;;;;;;;1.49;100.00;100580.38;10263627;28;20046;-73
2021/01/07 20:18:40;;;;;;;30.27;21.55;;;;;;;1.49;100.00;100580.38;10259855;28;20043;-73
2021/01/07 20:23:41;;;;;;;30.40;21.52;;;;;;;1.46;100.00;100586.44;10258780;29;20047;-73
2021/01/07 20:28:42;;;;;;;31.55;21.80;;;;;;;1.44;100.00;100590.78;10263955;28;20055;-75
2021/01/07 20:33:45;;;;;;;28.33;18.77;;;;;;;1.46;100.00;100594.22;10257132;29;20130;-73
2021/01/07 20:38:47;;;;;;;25.63;19.10;;;;;;;1.40;100.00;100591.69;10258887;29;20062;-73
2021/01/07 20:43:48;;;;;;;25.08;18.83;;;;;;;1.41;100.00;100592.56;10250647;28;20122;-73
2021/01/07 20:48:53;;;;;;;;;;;;;;;1.39;100.00;100592.56;10255947;29;20086;-73
2021/01/07 20:53:54;;;;;;;32.70;21.40;;;;;;;1.42;100.00;100597.69;10257969;29;20370;-73
2021/01/07 20:58:55;;;;;;;26.10;18.92;;;;;;;1.38;100.00;100601.22;10258151;29;20055;-73
2021/01/07 21:04:01;;;;;;;24.38;18.70;;;;;;;1.44;100.00;100610.69;10240820;29;20059;-73
2021/01/07 21:09:07;;;;;;;26.35;18.73;;;;;;;1.41;100.00;100603.78;10257335;29;20051;-74
2021/01/07 21:14:09;;;;;;;25.92;18.60;;;;;;;1.41;100.00;100597.75;10245777;29;20124;-73
2021/01/07 21:19:10;;;;;;;24.77;17.88;;;;;;;1.50;100.00;100601.13;10256165;28;20047;-73
2021/01/07 21:24:11;;;;;;;24.63;17.40;;;;;;;1.52;100.00;100612.34;10255988;28;20040;-73
2021/01/07 21:29:12;;;;;;;23.08;16.95;;;;;;;1.49;100.00;100601.13;10258353;28;20051;-74
2021/01/07 21:34:13;;;;;;;29.10;18.80;;;;;;;1.52;100.00;100608.88;10251181;28;20408;-74
2021/01/07 21:39:25;;;;;;;24.80;18.67;;;;;;;1.54;100.00;100607.16;10254650;28;20066;-74
2021/01/07 21:44:28;;;;;;;28.73;20.17;;;;;;;1.53;100.00;100603.69;10255771;29;20051;-74
2021/01/07 21:49:29;;;;;;;25.40;19.13;;;;;;;1.55;100.00;100602.81;10256322;29;20051;-73
2021/01/07 21:54:32;;;;;;;26.02;18.27;;;;;;;1.58;100.00;100611.47;10256109;29;20050;-73
2021/01/07 21:59:33;;;;;;;26.77;19.42;;;;;;;1.58;100.00;100618.38;10243766;29;20050;-74
2021/01/07 22:04:35;;;;;;;25.55;17.75;;;;;;;1.64;100.00;100615.72;10254480;28;20047;-73
2021/01/07 22:09:36;;;;;;;25.40;19.33;;;;;;;1.59;100.00;100605.38;10267029;28;20510;-73
2021/01/07 22:14:37;;;;;;;26.90;18.67;;;;;;;1.66;100.00;100614.84;10262748;28;20056;-73
2021/01/07 22:19:42;;;;;;;28.40;20.17;;;;;;;1.65;100.00;100607.06;10246228;28;20047;-73
2021/01/07 22:24:43;;;;;;;;;;;;;;;1.67;100.00;100597.53;10239933;29;20085;-73
2021/01/07 22:29:45;;;;;;;20.77;15.50;;;;;;;1.67;100.00;100595.81;10269560;28;20540;-74
2021/01/07 22:34:48;;;;;;;22.23;16.75;;;;;;;1.71;100.00;100594.91;10281020;28;20059;-73
2021/01/07 22:39:51;;;;;;;25.20;18.25;;;;;;;1.66;100.00;100581.09;10245115;28;20042;-73
2021/01/07 22:44:52;;;;;;;25.98;17.58;;;;;;;1.59;100.00;100566.41;10231015;29;20071;-74
2021/01/07 22:49:53;;;;;;;25.90;17.98;;;;;;;1.67;100.00;100574.16;10214545;29;20032;-73